Ardenvoir, Washington
Current Conditions -  °F | °C
As of 7:55 PM on Saturday 22 Nov 2014 (Local Time) from KEAT Reporting Station
Clear Clear  
Wind Chill: 36°   Ceiling: Unl
Heat Index: 44°   Visibility: 10mi
Dew Point: 31°   Wind: 20mph
Humidity: 60%   Direction: 320°NW
Pressure: 29.94"   Gusts: 28mph
Location:  47.74°N, 120.37°W
Report Text: KEAT 230355Z AUTO 32017G24KT 10SM CLR 07/M01 A2994 RMK AO2 PK WND 31026/0313 SLP144 T00671006
Loading
Personal Weather Stations






























Interactive Weather Map New forecast layout! Learn more

10-Day Weather Forecast

Advertisements
Track Severe Weather on mobile